Estación Meteorológica Peña el Pijo (Robertgarden) [ 01/30/23 13:52:14 CET ]

Fecha Hora Presion(HPa) Temp (°C) Humedad % Rocio (°C) Viento ( m/s) Direccion Lluvia 1Hora(mm) Lluvia 24H(mm) LLuvia Total(mm)
2010-Sep-05 01:01:15 1013.700 15.3 80 11.9         156.43
2010-Sep-05 02:01:12 1013.600 14.2 83 11.3         156.43
2010-Sep-05 03:01:14 1013.100 13.6 84 10.9         156.43
2010-Sep-05 04:01:18 1012.800 12.7 84 10.0         156.43
2010-Sep-05 05:01:16 1012.800 12.3 86 10.0         156.43
2010-Sep-05 06:01:20 1012.700 11.8 87 9.7         156.43
2010-Sep-05 07:01:15 1012.800 11.7 87 9.6         156.43
2010-Sep-05 08:01:15 1013.200 11.6 87 9.5         156.43
2010-Sep-05 09:01:13 1013.300 15.1 85 12.6         156.43
2010-Sep-05 10:01:19 1013.000 22.4 63 15.0         156.43
2010-Sep-05 11:01:18 1013.200 28.1 41 13.6         156.43
2010-Sep-05 12:01:16 1013.300 30.2 28 9.6         156.43
2010-Sep-05 13:01:17 1013.200 32.4 27 10.8         156.43
2010-Sep-05 14:01:15 1012.700 33.3 21 8.0         156.43
2010-Sep-05 15:01:17 1012.300 32.6 21 7.4         156.43
2010-Sep-05 16:01:16 1011.900 32.1 21 7.0 2.8 NE     156.43
2010-Sep-05 17:01:30 1011.400 31.9 22 7.4         156.43
2010-Sep-05 18:01:34 1011.300 30.6 23 6.9         156.43
2010-Sep-05 19:01:32 1011.100 28.2 26 6.7         156.43
2010-Sep-05 20:01:33 1011.400 25.9 29 6.4         156.43
2010-Sep-05 21:01:20 1011.600 23.3 36 7.3         156.43
2010-Sep-05 22:01:15 1012.400 19.9 45 7.6         156.43
2010-Sep-05 23:01:14 1012.600 17.6 53 7.8         156.43

Temperatura Máxima:33°    Temperatura Mínima:11°
Presión Máxima:1013.700 Hpa    Presión Mínima:1011.100 Hpa


Volver